Time;durP1;ratioP1;P1;durP2;ratioP2;P2;SDS_P1;SDS_P2;PMS_P1;PMS_P2;Temp;Humidity;BMP_temperature;BMP_pressure;BME280_temperature;BME280_humidity;BME280_pressure;Samples;Min_cycle;Max_cycle;Signal;HPM_P1;HPM_P2
2023/07/06 00:00:53;;;;;;;10.50;4.43;;;12.20;99.90;;;;;;4936010;28;20073;-61
2023/07/06 00:03:20;;;;;;;9.18;4.78;;;12.20;99.90;;;;;;4927908;28;20046;-59
2023/07/06 00:05:47;;;;;;;8.98;4.45;;;12.20;99.90;;;;;;4927045;29;20047;-61
2023/07/06 00:08:14;;;;;;;7.53;4.88;;;12.20;99.90;;;;;;4925262;29;20036;-60
2023/07/06 00:10:42;;;;;;;10.48;4.90;;;12.20;99.90;;;;;;4923197;29;20157;-61
2023/07/06 00:13:08;;;;;;;6.18;4.63;;;12.20;99.90;;;;;;4924357;29;20043;-61
2023/07/06 00:15:34;;;;;;;10.45;5.32;;;12.20;99.90;;;;;;4922953;28;20043;-61
2023/07/06 00:18:03;;;;;;;6.68;4.65;;;12.20;99.90;;;;;;4929194;29;20046;-61
2023/07/06 00:20:35;;;;;;;13.27;5.63;;;12.10;99.90;;;;;;4926722;29;20047;-60
2023/07/06 00:23:01;;;;;;;9.32;5.28;;;12.10;99.90;;;;;;4940238;28;20039;-60
2023/07/06 00:25:27;;;;;;;9.43;5.20;;;12.10;99.90;;;;;;4924733;29;20482;-60
2023/07/06 00:27:58;;;;;;;10.40;5.63;;;12.10;99.90;;;;;;4923025;29;20062;-61
2023/07/06 00:30:55;;;;;;;11.10;5.35;;;12.10;99.90;;;;;;4937934;28;20043;-60
2023/07/06 00:33:23;;;;;;;12.15;6.10;;;12.10;99.90;;;;;;4924996;29;20126;-60
2023/07/06 00:35:49;;;;;;;9.93;5.28;;;12.00;99.90;;;;;;4923210;28;20051;-60
2023/07/06 00:38:21;;;;;;;9.25;5.05;;;12.10;99.90;;;;;;4939959;28;20192;-60
2023/07/06 00:40:56;;;;;;;9.60;5.32;;;12.00;99.90;;;;;;4924457;29;20043;-60
2023/07/06 00:43:24;;;;;;;13.77;6.03;;;12.00;99.90;;;;;;4949501;28;20043;-59
2023/07/06 00:45:56;;;;;;;7.80;5.20;;;12.00;99.90;;;;;;4948727;28;20042;-60
2023/07/06 00:48:32;;;;;;;10.35;5.50;;;12.00;99.90;;;;;;4928068;28;20571;-60
2023/07/06 00:51:06;;;;;;;10.95;5.57;;;12.10;99.90;;;;;;4925635;28;20043;-61
2023/07/06 00:53:37;;;;;;;11.75;5.40;;;12.00;99.90;;;;;;4941050;28;20110;-60
2023/07/06 00:56:06;;;;;;;8.65;5.22;;;12.00;99.90;;;;;;4925121;29;20419;-60
2023/07/06 00:58:37;;;;;;;9.05;5.93;;;12.00;99.90;;;;;;4926275;29;20043;-60
2023/07/06 01:01:06;;;;;;;10.18;5.65;;;12.00;99.90;;;;;;4926972;28;20144;-61
2023/07/06 01:03:36;;;;;;;7.28;5.72;;;11.90;99.90;;;;;;4923179;28;20039;-62
2023/07/06 01:06:05;;;;;;;8.80;5.80;;;11.90;99.90;;;;;;4919477;29;20373;-62
2023/07/06 01:08:35;;;;;;;12.27;6.10;;;11.90;99.90;;;;;;4935774;28;20479;-61
2023/07/06 01:11:01;;;;;;;9.93;5.28;;;11.90;99.90;;;;;;4908811;29;20086;-60
2023/07/06 01:13:28;;;;;;;11.00;6.30;;;11.90;99.90;;;;;;4920577;29;20047;-60
2023/07/06 01:16:14;;;;;;;9.02;6.25;;;11.90;99.90;;;;;;4936510;28;20083;-59
2023/07/06 01:18:52;;;;;;;11.32;6.20;;;11.90;99.90;;;;;;4921456;29;20047;-60
2023/07/06 01:21:31;;;;;;;11.18;7.05;;;11.90;99.90;;;;;;4919353;29;20047;-59
2023/07/06 01:24:02;;;;;;;9.60;5.75;;;11.90;99.90;;;;;;4920612;29;20089;-60
2023/07/06 01:26:49;;;;;;;12.52;6.05;;;11.80;99.90;;;;;;4910992;29;20050;-60
2023/07/06 01:29:36;;;;;;;9.02;6.18;;;11.80;99.90;;;;;;4925346;28;20043;-60
2023/07/06 01:32:06;;;;;;;10.55;7.03;;;11.80;99.90;;;;;;4920846;28;20079;-61
2023/07/06 01:34:53;;;;;;;12.40;6.97;;;11.80;99.90;;;;;;4920724;29;20505;-61
2023/07/06 01:37:23;;;;;;;10.43;6.70;;;11.80;99.90;;;;;;4922226;29;20035;-60
2023/07/06 01:39:50;;;;;;;11.45;7.32;;;11.80;99.90;;;;;;4917923;28;24431;-61
2023/07/06 01:42:31;;;;;;;14.15;7.38;;;11.80;99.90;;;;;;4937389;28;20036;-60
2023/07/06 01:45:18;;;;;;;9.30;6.85;;;11.80;99.90;;;;;;4926099;28;20535;-60
2023/07/06 01:47:55;;;;;;;14.90;7.13;;;11.80;99.90;;;;;;4937604;28;20047;-60
2023/07/06 01:50:41;;;;;;;12.48;7.18;;;11.80;99.90;;;;;;4921212;29;20043;-60
2023/07/06 01:53:31;;;;;;;12.07;7.55;;;11.80;99.90;;;;;;4926435;28;20047;-61
2023/07/06 01:56:05;;;;;;;12.75;7.97;;;11.80;99.90;;;;;;4941110;28;20500;-60
2023/07/06 01:58:43;;;;;;;14.68;7.75;;;11.80;99.90;;;;;;4920481;29;20044;-61
2023/07/06 02:01:13;;;;;;;12.13;8.10;;;11.80;99.90;;;;;;4906639;29;20544;-60
2023/07/06 02:03:41;;;;;;;9.57;7.32;;;11.90;99.90;;;;;;4916308;29;20133;-59
2023/07/06 02:06:08;;;;;;;16.45;7.85;;;11.90;99.90;;;;;;4932801;28;20488;-61
2023/07/06 02:08:41;;;;;;;15.50;7.70;;;11.90;99.90;;;;;;4915817;28;20819;-59
2023/07/06 02:11:07;;;;;;;13.68;8.23;;;11.90;99.90;;;;;;4919283;29;20051;-59
2023/07/06 02:13:33;;;;;;;12.40;8.05;;;11.90;99.90;;;;;;4918274;29;20062;-60
2023/07/06 02:15:59;;;;;;;14.40;8.02;;;11.90;99.90;;;;;;4919511;28;20039;-61
2023/07/06 02:18:25;;;;;;;13.55;8.43;;;11.90;99.90;;;;;;4916782;29;20038;-60
2023/07/06 02:20:53;;;;;;;13.48;8.30;;;12.00;99.90;;;;;;4918456;28;20050;-60
2023/07/06 02:23:19;;;;;;;11.77;8.15;;;12.00;99.90;;;;;;4929969;28;20578;-62
2023/07/06 02:25:45;;;;;;;12.50;8.38;;;12.00;99.90;;;;;;4916032;29;20047;-59
2023/07/06 02:28:11;;;;;;;18.50;8.30;;;12.00;99.90;;;;;;4914244;28;20039;-62
2023/07/06 02:30:37;;;;;;;13.00;8.48;;;12.10;99.90;;;;;;4923340;28;20491;-61
2023/07/06 02:33:03;;;;;;;15.45;8.43;;;12.10;99.90;;;;;;4936291;28;20094;-61
2023/07/06 02:35:29;;;;;;;14.57;8.82;;;12.10;99.90;;;;;;4938400;28;20043;-60
2023/07/06 02:37:55;;;;;;;14.52;8.80;;;12.20;99.90;;;;;;4938336;28;20035;-61
2023/07/06 02:40:20;;;;;;;16.40;8.88;;;12.20;99.90;;;;;;4922088;29;20381;-60
2023/07/06 02:42:46;;;;;;;16.77;9.02;;;12.20;99.90;;;;;;4920380;29;20064;-61
2023/07/06 02:45:12;;;;;;;16.48;8.98;;;12.20;99.90;;;;;;4921976;29;20046;-61
2023/07/06 02:47:40;;;;;;;12.20;8.50;;;12.30;99.90;;;;;;4936733;28;20146;-60
2023/07/06 02:50:10;;;;;;;15.43;8.00;;;12.30;99.90;;;;;;4922197;28;20055;-60
2023/07/06 02:52:42;;;;;;;13.05;8.40;;;12.30;99.90;;;;;;4921411;28;20053;-59
2023/07/06 02:55:09;;;;;;;13.10;8.40;;;12.30;99.90;;;;;;4938901;28;20048;-60
2023/07/06 02:57:39;;;;;;;15.23;8.25;;;12.30;99.90;;;;;;4928413;28;20048;-60
2023/07/06 03:00:10;;;;;;;12.10;8.13;;;12.30;99.90;;;;;;4925201;28;20039;-59
2023/07/06 03:02:36;;;;;;;17.38;8.73;;;12.30;99.90;;;;;;4923176;29;20042;-59
2023/07/06 03:05:04;;;;;;;14.65;8.52;;;12.30;99.90;;;;;;4939816;28;22127;-60
2023/07/06 03:07:30;;;;;;;12.18;8.48;;;12.30;99.90;;;;;;4921228;28;20062;-61
2023/07/06 03:09:57;;;;;;;13.75;8.73;;;12.30;99.90;;;;;;4925817;29;20056;-59
2023/07/06 03:12:23;;;;;;;16.77;8.57;;;12.30;99.90;;;;;;4939168;28;20462;-60
2023/07/06 03:14:49;;;;;;;16.75;8.63;;;12.30;99.90;;;;;;4953391;28;20132;-60
2023/07/06 03:17:15;;;;;;;15.70;8.73;;;12.30;99.90;;;;;;4921876;28;20576;-60
2023/07/06 03:19:41;;;;;;;18.50;9.10;;;12.30;99.90;;;;;;4927836;28;20102;-60
2023/07/06 03:22:07;;;;;;;14.50;8.52;;;12.20;99.90;;;;;;4937343;28;20502;-59
2023/07/06 03:24:33;;;;;;;14.38;8.90;;;12.20;99.90;;;;;;4922485;29;20043;-60
2023/07/06 03:27:01;;;;;;;15.80;8.73;;;12.20;99.90;;;;;;4920823;28;20042;-61
2023/07/06 03:29:27;;;;;;;17.52;8.82;;;12.20;99.90;;;;;;4908593;28;20039;-60
2023/07/06 03:31:53;;;;;;;14.50;8.85;;;12.20;99.90;;;;;;4920823;28;20043;-61
2023/07/06 03:34:20;;;;;;;14.77;8.70;;;12.10;99.90;;;;;;4923187;29;20078;-61
2023/07/06 03:36:46;;;;;;;13.68;9.00;;;12.20;99.90;;;;;;4921396;29;20050;-60
2023/07/06 03:39:12;;;;;;;12.73;9.05;;;12.10;99.90;;;;;;4940769;28;20381;-60
2023/07/06 03:41:38;;;;;;;13.45;8.73;;;12.10;99.90;;;;;;4938299;28;20043;-61
2023/07/06 03:44:05;;;;;;;15.35;8.85;;;12.10;99.90;;;;;;4923602;29;20097;-60
2023/07/06 03:46:32;;;;;;;13.18;8.45;;;12.10;99.90;;;;;;4938929;28;20035;-60
2023/07/06 03:48:57;;;;;;;15.40;8.48;;;12.10;99.90;;;;;;4925476;29;20558;-61
2023/07/06 03:51:23;;;;;;;16.23;9.38;;;12.10;99.90;;;;;;4919105;28;20043;-61
2023/07/06 03:53:49;;;;;;;16.27;9.38;;;12.10;99.90;;;;;;4909617;28;20503;-59
2023/07/06 03:56:16;;;;;;;13.70;8.55;;;12.20;99.90;;;;;;4925647;29;20039;-62
2023/07/06 03:58:42;;;;;;;15.48;8.95;;;12.20;99.90;;;;;;4925038;29;20041;-61
2023/07/06 04:01:08;;;;;;;19.55;9.20;;;12.20;99.90;;;;;;4939956;28;20043;-59
2023/07/06 04:03:34;;;;;;;14.77;8.48;;;12.20;99.90;;;;;;4923284;29;20074;-60
2023/07/06 04:06:03;;;;;;;14.65;9.10;;;12.20;99.90;;;;;;4908844;29;20047;-61
2023/07/06 04:08:28;;;;;;;14.13;8.77;;;12.30;99.90;;;;;;4922119;29;20047;-60
2023/07/06 04:10:55;;;;;;;14.18;8.73;;;12.30;99.90;;;;;;4908988;28;20050;-59
2023/07/06 04:13:20;;;;;;;16.08;8.32;;;12.30;99.90;;;;;;4936100;28;20118;-59
2023/07/06 04:15:48;;;;;;;11.70;8.25;;;12.40;99.90;;;;;;4924751;29;20058;-60
2023/07/06 04:18:15;;;;;;;18.50;8.70;;;12.40;99.90;;;;;;4939405;28;20075;-60
2023/07/06 04:20:41;;;;;;;13.43;8.40;;;12.50;99.90;;;;;;4939149;28;20468;-60
2023/07/06 04:23:09;;;;;;;11.98;8.65;;;12.50;99.90;;;;;;4919246;28;20035;-60
2023/07/06 04:25:36;;;;;;;14.27;8.10;;;12.50;99.90;;;;;;4923829;28;20086;-60
2023/07/06 04:28:13;;;;;;;16.30;7.80;;;12.60;99.90;;;;;;4920958;29;20043;-60
2023/07/06 04:30:41;;;;;;;14.38;8.60;;;12.60;99.90;;;;;;4907001;28;20055;-60
2023/07/06 04:33:10;;;;;;;16.42;8.48;;;12.70;99.90;;;;;;4902643;29;20428;-61
2023/07/06 04:35:36;;;;;;;15.20;8.32;;;12.60;99.90;;;;;;4934418;28;20043;-60
2023/07/06 04:38:03;;;;;;;15.25;8.25;;;12.70;99.90;;;;;;4915092;29;20086;-59
2023/07/06 04:40:29;;;;;;;14.60;8.98;;;12.70;99.90;;;;;;4916858;29;21316;-62
2023/07/06 04:42:55;;;;;;;11.38;8.05;;;12.80;99.90;;;;;;4934899;28;20050;-60
2023/07/06 04:45:24;;;;;;;15.98;8.40;;;12.80;99.90;;;;;;4918041;29;20047;-60
2023/07/06 04:48:00;;;;;;;15.85;8.63;;;12.90;99.90;;;;;;4916661;29;20071;-61
2023/07/06 04:50:27;;;;;;;13.13;8.30;;;12.90;99.90;;;;;;4917213;29;20983;-61
2023/07/06 04:52:57;;;;;;;13.80;8.05;;;12.90;99.90;;;;;;4912893;29;20060;-60
2023/07/06 04:55:24;;;;;;;17.45;7.75;;;12.90;99.90;;;;;;4932011;28;20090;-61
2023/07/06 04:57:54;;;;;;;14.10;7.75;;;12.90;99.90;;;;;;4893583;28;20491;-61
2023/07/06 05:00:26;;;;;;;16.65;8.15;;;12.90;99.90;;;;;;4910507;29;20051;-60
2023/07/06 05:02:53;;;;;;;14.70;8.10;;;12.90;99.90;;;;;;4917632;28;20035;-61
2023/07/06 05:05:20;;;;;;;19.40;8.60;;;13.00;99.90;;;;;;4920691;28;20050;-61
2023/07/06 05:07:46;;;;;;;16.73;8.55;;;13.00;99.90;;;;;;4919912;28;20090;-61
2023/07/06 05:10:13;;;;;;;17.05;8.73;;;13.00;99.90;;;;;;4920336;29;20501;-61
2023/07/06 05:12:39;;;;;;;20.83;9.55;;;13.10;99.90;;;;;;4909682;28;20583;-60
2023/07/06 05:15:06;;;;;;;16.08;8.48;;;13.10;99.90;;;;;;4924740;29;20046;-60
2023/07/06 05:17:32;;;;;;;16.15;8.35;;;13.20;99.90;;;;;;4935642;28;20107;-60
2023/07/06 05:19:58;;;;;;;16.17;8.70;;;13.20;99.90;;;;;;4918295;29;20476;-60
2023/07/06 05:22:25;;;;;;;19.00;9.30;;;13.30;99.90;;;;;;4935568;28;20043;-61
2023/07/06 05:24:51;;;;;;;20.17;9.98;;;13.30;99.90;;;;;;4918442;28;20057;-59
2023/07/06 05:27:18;;;;;;;17.80;8.75;;;13.40;99.90;;;;;;4922747;29;20043;-60
2023/07/06 05:29:44;;;;;;;18.08;9.77;;;13.50;99.90;;;;;;4923469;29;20078;-62
2023/07/06 05:32:09;;;;;;;19.50;9.55;;;13.50;99.90;;;;;;4913574;29;20178;-60
2023/07/06 05:34:35;;;;;;;19.77;10.88;;;13.60;99.90;;;;;;4914520;28;20047;-61
2023/07/06 05:37:02;;;;;;;19.25;10.15;;;13.70;99.90;;;;;;4932619;28;20051;-61
2023/07/06 05:39:28;;;;;;;17.75;9.52;;;13.70;99.90;;;;;;4925164;28;20041;-60
2023/07/06 05:41:53;;;;;;;15.63;9.70;;;13.70;99.90;;;;;;4921065;28;20042;-61
2023/07/06 05:44:19;;;;;;;18.40;9.80;;;13.80;99.90;;;;;;4919290;28;20047;-62
2023/07/06 05:46:45;;;;;;;18.73;9.93;;;13.80;99.90;;;;;;4918986;28;20130;-60
2023/07/06 05:49:10;;;;;;;21.40;10.15;;;13.80;99.90;;;;;;4909530;28;20040;-61
2023/07/06 05:51:36;;;;;;;18.98;10.25;;;13.90;99.90;;;;;;4905316;28;20617;-60
2023/07/06 05:54:02;;;;;;;23.50;10.43;;;13.90;99.90;;;;;;4906364;29;20087;-60
2023/07/06 05:56:31;;;;;;;22.15;10.40;;;14.00;99.90;;;;;;4928924;29;20404;-60
2023/07/06 05:58:59;;;;;;;27.08;10.48;;;14.00;99.90;;;;;;4939797;28;20444;-59
2023/07/06 06:01:26;;;;;;;19.35;10.55;;;14.10;99.90;;;;;;4906362;28;20101;-60
2023/07/06 06:03:52;;;;;;;15.60;9.63;;;14.10;99.90;;;;;;4909022;29;20055;-61
2023/07/06 06:06:21;;;;;;;19.35;10.50;;;14.20;99.90;;;;;;4908970;29;20054;-62
2023/07/06 06:08:48;;;;;;;20.40;10.90;;;14.30;99.90;;;;;;4916787;28;20126;-62
2023/07/06 06:11:15;;;;;;;18.95;10.23;;;14.40;99.90;;;;;;4925785;28;20419;-62
2023/07/06 06:13:43;;;;;;;18.90;11.05;;;14.40;99.90;;;;;;4915399;28;22497;-61
2023/07/06 06:16:11;;;;;;;19.75;11.55;;;14.50;99.90;;;;;;4915661;29;20047;-60
2023/07/06 06:18:39;;;;;;;21.67;11.05;;;14.60;99.90;;;;;;4890342;28;20058;-61
2023/07/06 06:21:10;;;;;;;25.15;11.57;;;14.70;99.90;;;;;;4887726;29;20040;-61
2023/07/06 06:23:36;;;;;;;20.83;10.82;;;14.80;99.90;;;;;;4937634;28;20075;-61
2023/07/06 06:26:02;;;;;;;22.85;10.82;;;14.90;99.90;;;;;;4919754;29;20483;-62
2023/07/06 06:28:28;;;;;;;16.63;10.50;;;15.00;99.90;;;;;;4918722;28;20051;-61
2023/07/06 06:30:55;;;;;;;20.67;11.02;;;15.10;99.90;;;;;;4919284;29;20125;-62
2023/07/06 06:33:21;;;;;;;21.25;10.68;;;15.10;99.90;;;;;;4923795;28;20527;-61
2023/07/06 06:35:47;;;;;;;23.17;11.10;;;15.20;99.90;;;;;;4924490;28;20156;-61
2023/07/06 06:38:14;;;;;;;21.10;10.90;;;15.30;99.90;;;;;;4941612;29;20543;-61
2023/07/06 06:40:40;;;;;;;24.90;10.70;;;15.40;99.90;;;;;;4942122;28;20107;-61
2023/07/06 06:43:06;;;;;;;23.83;10.73;;;15.50;99.90;;;;;;4907450;29;20436;-61
2023/07/06 06:45:32;;;;;;;19.20;9.55;;;15.60;99.90;;;;;;4908381;28;20035;-60
2023/07/06 06:47:58;;;;;;;18.35;10.00;;;15.70;99.90;;;;;;4929500;29;20404;-61
2023/07/06 06:50:24;;;;;;;17.45;9.52;;;15.90;99.90;;;;;;4920308;29;20074;-62
2023/07/06 06:52:50;;;;;;;19.98;9.98;;;15.90;99.90;;;;;;4941719;28;20035;-61
2023/07/06 06:55:16;;;;;;;20.98;10.20;;;16.10;99.90;;;;;;4930733;29;20051;-61
2023/07/06 06:57:43;;;;;;;23.75;10.18;;;16.20;99.90;;;;;;4944649;28;20502;-61
2023/07/06 07:00:10;;;;;;;17.63;8.57;;;16.30;99.90;;;;;;4941086;28;20091;-61
2023/07/06 07:02:38;;;;;;;18.45;8.75;;;16.40;99.90;;;;;;4944984;28;20036;-62
2023/07/06 07:05:05;;;;;;;15.73;7.90;;;16.50;99.90;;;;;;4932735;29;20036;-61
2023/07/06 07:07:31;;;;;;;15.27;7.80;;;16.60;99.90;;;;;;4927075;28;20084;-62
2023/07/06 07:09:57;;;;;;;22.75;8.40;;;16.60;99.90;;;;;;4913931;29;20130;-60
2023/07/06 07:12:23;;;;;;;26.55;7.45;;;16.70;99.90;;;;;;4923594;29;20506;-61
2023/07/06 07:14:49;;;;;;;15.73;6.40;;;16.80;99.90;;;;;;4926704;28;20533;-61
2023/07/06 07:17:14;;;;;;;17.17;6.80;;;16.90;99.90;;;;;;4938768;28;20139;-61
2023/07/06 07:19:41;;;;;;;15.00;6.50;;;17.10;99.90;;;;;;4908290;29;20051;-61
2023/07/06 07:22:07;;;;;;;15.20;6.20;;;17.20;99.90;;;;;;4906998;29;20079;-61
2023/07/06 07:24:33;;;;;;;16.63;5.47;;;17.30;99.90;;;;;;4925472;29;20077;-62
2023/07/06 07:27:00;;;;;;;11.98;4.78;;;17.40;99.90;;;;;;4940140;28;20051;-62
2023/07/06 07:29:26;;;;;;;13.68;4.53;;;17.50;99.90;;;;;;4925616;29;20043;-60
2023/07/06 07:31:52;;;;;;;16.42;5.13;;;17.60;99.90;;;;;;4910894;29;20164;-61
2023/07/06 07:34:18;;;;;;;10.63;4.75;;;17.70;99.90;;;;;;4938401;28;20376;-62
2023/07/06 07:36:44;;;;;;;14.00;5.32;;;17.70;99.90;;;;;;4939732;29;20071;-61
2023/07/06 07:39:11;;;;;;;12.30;4.47;;;17.80;99.90;;;;;;4925776;28;20411;-63
2023/07/06 07:41:37;;;;;;;13.18;4.38;;;17.90;99.90;;;;;;4927188;29;20138;-62
2023/07/06 07:44:03;;;;;;;12.82;4.50;;;18.00;99.90;;;;;;4925968;29;20043;-61
2023/07/06 07:46:29;;;;;;;13.25;4.80;;;18.10;99.90;;;;;;4939757;28;20078;-61
2023/07/06 07:48:56;;;;;;;10.93;4.35;;;18.20;99.90;;;;;;4923311;29;20067;-61
2023/07/06 07:51:24;;;;;;;10.43;3.92;;;18.20;99.90;;;;;;4921277;29;20039;-63
2023/07/06 07:53:53;;;;;;;7.57;3.53;;;18.30;99.90;;;;;;4923251;28;20046;-62
2023/07/06 07:56:19;;;;;;;10.05;3.05;;;18.50;99.90;;;;;;4910799;29;20043;-62
2023/07/06 07:58:48;;;;;;;10.15;3.58;;;18.60;99.90;;;;;;4942258;29;20046;-62
2023/07/06 08:01:16;;;;;;;11.05;3.00;;;18.80;99.90;;;;;;4927687;29;20051;-61
2023/07/06 08:03:42;;;;;;;7.70;3.10;;;18.90;99.90;;;;;;4923815;29;20047;-62
2023/07/06 08:06:10;;;;;;;7.57;2.80;;;19.00;99.90;;;;;;4923180;29;20161;-62
2023/07/06 08:08:38;;;;;;;5.53;2.40;;;19.20;99.90;;;;;;4928503;28;20047;-61
2023/07/06 08:11:14;;;;;;;7.78;2.92;;;19.30;99.90;;;;;;4925544;29;20444;-61
2023/07/06 08:13:40;;;;;;;7.63;2.78;;;19.30;99.90;;;;;;4924695;28;20039;-62
2023/07/06 08:16:06;;;;;;;4.07;2.00;;;19.30;99.90;;;;;;4928775;29;20484;-61
2023/07/06 08:18:33;;;;;;;3.75;1.50;;;19.20;99.90;;;;;;4925231;29;20042;-61
2023/07/06 08:21:00;;;;;;;5.50;2.10;;;19.20;99.90;;;;;;4947035;28;20511;-62
2023/07/06 08:23:28;;;;;;;6.55;1.75;;;19.20;99.90;;;;;;4927652;28;20070;-61
2023/07/06 08:25:54;;;;;;;5.80;1.90;;;19.40;99.90;;;;;;4931703;28;20424;-62
2023/07/06 08:28:24;;;;;;;4.85;1.38;;;19.40;99.90;;;;;;4926148;29;20365;-61
2023/07/06 08:30:52;;;;;;;4.07;1.50;;;19.40;99.90;;;;;;4916970;29;20491;-61
2023/07/06 08:33:20;;;;;;;3.22;1.50;;;19.30;99.90;;;;;;4925680;29;20046;-62
2023/07/06 08:35:47;;;;;;;4.22;1.58;;;19.30;99.90;;;;;;4926964;29;20050;-62
2023/07/06 08:38:13;;;;;;;6.57;2.00;;;19.40;99.90;;;;;;4927198;28;20082;-62
2023/07/06 08:40:42;;;;;;;4.47;1.70;;;19.40;99.90;;;;;;4917201;29;20403;-61
2023/07/06 08:43:18;;;;;;;9.88;2.00;;;19.50;99.90;;;;;;4933595;28;20448;-61
2023/07/06 08:45:47;;;;;;;4.53;1.60;;;19.50;99.90;;;;;;4925875;29;20098;-61
2023/07/06 08:48:16;;;;;;;4.10;1.80;;;19.60;99.90;;;;;;4925186;29;20097;-61
2023/07/06 08:50:45;;;;;;;4.38;1.80;;;19.60;99.90;;;;;;4926470;29;20508;-63
2023/07/06 08:53:14;;;;;;;5.65;1.67;;;19.60;99.90;;;;;;4943652;28;20061;-62
2023/07/06 08:55:44;;;;;;;7.28;2.10;;;19.60;99.90;;;;;;4939613;28;20058;-62
2023/07/06 08:58:28;;;;;;;5.00;2.00;;;19.60;99.90;;;;;;4927494;29;20044;-61
2023/07/06 09:01:10;;;;;;;6.63;2.00;;;19.60;99.90;;;;;;4928598;29;20487;-61
2023/07/06 09:03:44;;;;;;;4.40;2.00;;;19.60;99.90;;;;;;4909573;29;20546;-61
2023/07/06 09:06:18;;;;;;;5.10;1.98;;;19.50;99.90;;;;;;4930579;28;20165;-63
2023/07/06 09:08:46;;;;;;;4.70;1.90;;;19.40;99.90;;;;;;4932452;29;20127;-62
2023/07/06 09:11:13;;;;;;;4.55;1.70;;;19.40;99.90;;;;;;4926603;28;20452;-61
2023/07/06 09:13:44;;;;;;;4.10;2.00;;;19.40;99.90;;;;;;4941615;28;20035;-62
2023/07/06 09:16:11;;;;;;;4.03;2.00;;;19.50;99.90;;;;;;4926620;29;20035;-61
2023/07/06 09:18:36;;;;;;;6.32;1.75;;;19.50;99.90;;;;;;4922154;29;20043;-61
2023/07/06 09:21:03;;;;;;;7.38;2.10;;;19.50;99.90;;;;;;4910479;29;20050;-61
2023/07/06 09:23:31;;;;;;;7.93;2.30;;;19.60;99.90;;;;;;4925067;29;20126;-61
2023/07/06 09:25:56;;;;;;;5.35;2.40;;;19.60;99.90;;;;;;4926801;28;20515;-61
2023/07/06 09:28:29;;;;;;;4.15;2.28;;;19.70;99.90;;;;;;4930993;29;20071;-62
2023/07/06 09:31:21;;;;;;;5.20;2.30;;;19.80;99.90;;;;;;4926095;28;20043;-62
2023/07/06 09:33:53;;;;;;;6.40;2.17;;;19.90;99.90;;;;;;4923140;29;20621;-62
2023/07/06 09:36:25;;;;;;;8.50;2.17;;;20.00;99.90;;;;;;4927769;28;21012;-62
2023/07/06 09:38:52;;;;;;;8.00;2.08;;;20.00;99.90;;;;;;4926328;29;20050;-62
2023/07/06 09:41:23;;;;;;;5.38;2.15;;;20.10;99.90;;;;;;4927036;28;20043;-62
2023/07/06 09:44:03;;;;;;;7.65;2.58;;;20.10;99.90;;;;;;4925882;28;20050;-61
2023/07/06 09:46:35;;;;;;;4.15;2.28;;;20.40;99.90;;;;;;4929815;29;20103;-62
2023/07/06 09:49:02;;;;;;;5.72;2.08;;;20.80;99.90;;;;;;4924386;28;20509;-62
2023/07/06 09:51:43;;;;;;;7.20;2.17;;;20.90;99.90;;;;;;4941285;29;20098;-63
2023/07/06 09:54:17;;;;;;;5.07;2.40;;;20.80;99.90;;;;;;4925119;29;20907;-62
2023/07/06 09:56:43;;;;;;;6.70;2.42;;;20.70;99.70;;;;;;4939817;28;20149;-61
2023/07/06 09:59:11;;;;;;;3.80;1.75;;;20.60;99.60;;;;;;4942797;28;20488;-62
2023/07/06 10:01:40;;;;;;;7.90;2.00;;;20.50;99.70;;;;;;4921253;29;20086;-63
2023/07/06 10:04:23;;;;;;;4.90;2.15;;;20.50;99.50;;;;;;4930612;29;20118;-62
2023/07/06 10:07:11;;;;;;;6.95;1.60;;;20.50;99.30;;;;;;4940449;28;20110;-62
2023/07/06 10:09:47;;;;;;;6.07;2.13;;;20.50;99.00;;;;;;4907925;28;20051;-63
2023/07/06 10:12:26;;;;;;;4.78;2.20;;;20.40;98.70;;;;;;4937149;28;20651;-62
2023/07/06 10:14:53;;;;;;;10.25;2.00;;;20.30;98.20;;;;;;4919772;29;20055;-63
2023/07/06 10:17:38;;;;;;;3.75;1.48;;;20.30;98.00;;;;;;4919062;29;20051;-62
2023/07/06 10:20:21;;;;;;;3.35;1.70;;;20.30;98.30;;;;;;4904930;29;20520;-62
2023/07/06 10:23:14;;;;;;;7.65;1.60;;;20.30;97.70;;;;;;4918764;29;20055;-62
2023/07/06 10:25:47;;;;;;;5.47;1.83;;;20.30;97.50;;;;;;4924852;29;20522;-62
2023/07/06 10:28:19;;;;;;;7.85;1.80;;;20.20;97.60;;;;;;4919224;28;20101;-61
2023/07/06 10:30:49;;;;;;;5.00;1.83;;;20.10;97.80;;;;;;4906475;29;20058;-62
2023/07/06 10:33:23;;;;;;;3.85;1.60;;;20.00;97.50;;;;;;4937189;28;20074;-61
2023/07/06 10:35:52;;;;;;;6.25;1.60;;;20.00;97.40;;;;;;4918608;29;20123;-62
2023/07/06 10:38:19;;;;;;;4.43;1.67;;;20.30;97.90;;;;;;4936521;28;20052;-62
2023/07/06 10:41:12;;;;;;;4.80;1.40;;;20.60;98.00;;;;;;4929490;29;20047;-62
2023/07/06 10:43:42;;;;;;;;;;;20.70;97.10;;;;;;4941287;28;20504;-62
2023/07/06 10:46:30;;;;;;;4.72;1.80;;;20.70;96.70;;;;;;4942037;28;20379;-62
2023/07/06 10:48:57;;;;;;;1.60;1.20;;;20.90;97.00;;;;;;4907789;29;20051;-61
2023/07/06 10:51:29;;;;;;;2.58;1.40;;;21.10;96.70;;;;;;4938940;28;20047;-63
2023/07/06 10:54:11;;;;;;;2.42;1.13;;;21.40;95.80;;;;;;4930938;28;20054;-61
2023/07/06 10:56:42;;;;;;;3.23;1.50;;;21.70;95.40;;;;;;4929571;29;20056;-62
2023/07/06 10:59:18;;;;;;;3.08;1.40;;;21.90;94.30;;;;;;4939668;28;20049;-62
2023/07/06 11:01:45;;;;;;;2.65;1.42;;;22.10;93.60;;;;;;4920982;29;20389;-62
2023/07/06 11:04:41;;;;;;;1.85;1.45;;;22.40;93.20;;;;;;4924020;29;20047;-63
2023/07/06 11:07:41;;;;;;;3.17;1.35;;;22.70;92.80;;;;;;4940590;28;20054;-61
2023/07/06 11:10:13;;;;;;;1.60;1.30;;;23.00;92.70;;;;;;4939447;28;20055;-61
2023/07/06 11:12:57;;;;;;;2.75;1.50;;;23.10;91.30;;;;;;4923323;29;20055;-61
2023/07/06 11:15:35;;;;;;;5.20;1.35;;;22.90;91.10;;;;;;4923689;28;20500;-62
2023/07/06 11:18:17;;;;;;;3.45;1.23;;;22.70;87.80;;;;;;4920721;29;20095;-63
2023/07/06 11:21:05;;;;;;;2.72;1.20;;;22.40;87.50;;;;;;4923902;29;20412;-62
2023/07/06 11:23:41;;;;;;;4.43;1.40;;;22.20;89.20;;;;;;4901874;29;20054;-63
2023/07/06 11:26:25;;;;;;;3.63;1.52;;;21.90;89.00;;;;;;4925074;29;20055;-62
2023/07/06 11:28:53;;;;;;;3.40;1.50;;;21.70;89.90;;;;;;4921774;29;20058;-62
2023/07/06 11:31:34;;;;;;;4.63;1.80;;;21.50;90.70;;;;;;4923455;29;20039;-63
2023/07/06 11:34:14;;;;;;;4.63;1.75;;;21.30;91.10;;;;;;4912085;29;20051;-64
2023/07/06 11:36:52;;;;;;;5.97;1.85;;;21.20;91.60;;;;;;4923283;28;20058;-62
2023/07/06 11:39:44;;;;;;;3.65;1.80;;;21.00;91.80;;;;;;4908986;29;20459;-63
2023/07/06 11:42:38;;;;;;;4.20;1.80;;;20.90;92.60;;;;;;4907335;28;20043;-61
2023/07/06 11:45:28;;;;;;;7.07;2.00;;;20.80;92.70;;;;;;4901777;28;20047;-61
2023/07/06 11:48:12;;;;;;;4.95;2.05;;;20.70;93.00;;;;;;4928451;28;20055;-60
2023/07/06 11:50:39;;;;;;;3.70;1.92;;;20.80;93.40;;;;;;4944835;28;20051;-60
2023/07/06 11:53:29;;;;;;;6.05;2.20;;;20.80;93.90;;;;;;4922906;28;20043;-61
2023/07/06 11:56:08;;;;;;;4.97;2.00;;;20.90;93.80;;;;;;4926262;29;20408;-63
2023/07/06 11:58:53;;;;;;;4.05;1.70;;;21.00;93.70;;;;;;4926012;29;20036;-62
2023/07/06 12:02:04;;;;;;;3.33;1.98;;;21.00;93.70;;;;;;4912343;29;20046;-62
2023/07/06 12:04:20;;;;;;;5.93;2.00;;;21.20;93.80;;;;;;4910037;29;20083;-62
2023/07/06 12:06:48;;;;;;;3.40;1.40;;;21.70;94.00;;;;;;4926588;29;20394;-62
2023/07/06 12:09:19;;;;;;;3.10;1.95;;;22.10;93.10;;;;;;4931131;29;20164;-63
2023/07/06 12:12:12;;;;;;;4.38;1.80;;;22.30;92.80;;;;;;4927112;29;20048;-62
2023/07/06 12:14:37;;;;;;;4.00;1.83;;;22.40;92.30;;;;;;4917588;29;20583;-62
2023/07/06 12:17:06;;;;;;;4.00;1.80;;;22.30;91.80;;;;;;4909309;29;20035;-62
2023/07/06 12:19:31;;;;;;;4.93;1.48;;;22.20;91.90;;;;;;4921925;28;20985;-62
2023/07/06 12:21:59;;;;;;;3.58;1.75;;;22.20;92.40;;;;;;4923166;28;20031;-62
2023/07/06 12:24:29;;;;;;;4.75;1.77;;;22.30;92.20;;;;;;4929659;28;20122;-63
2023/07/06 12:27:02;;;;;;;3.40;1.60;;;22.40;92.00;;;;;;4928268;28;20039;-63
2023/07/06 12:29:31;;;;;;;4.50;1.80;;;22.40;91.30;;;;;;4911335;28;20081;-66
2023/07/06 12:32:08;;;;;;;4.28;1.77;;;22.30;90.80;;;;;;4939217;28;20518;-64
2023/07/06 12:34:35;;;;;;;5.13;1.75;;;22.30;90.50;;;;;;4924477;28;20051;-63
2023/07/06 12:37:02;;;;;;;2.78;1.60;;;22.40;90.40;;;;;;4937173;28;20063;-65
2023/07/06 12:39:33;;;;;;;2.45;1.50;;;22.70;91.20;;;;;;4893632;28;20086;-63
2023/07/06 12:41:59;;;;;;;4.73;1.83;;;22.90;90.30;;;;;;4919964;28;20095;-63
2023/07/06 12:44:27;;;;;;;5.05;1.55;;;22.90;89.60;;;;;;4911906;28;20105;-64
2023/07/06 12:47:01;;;;;;;5.63;2.03;;;22.70;89.70;;;;;;4940267;28;20079;-64
2023/07/06 12:49:27;;;;;;;4.57;1.25;;;22.60;89.40;;;;;;4924111;28;20504;-64
2023/07/06 12:51:56;;;;;;;1.70;1.50;;;22.50;88.90;;;;;;4906127;29;20051;-63
2023/07/06 12:54:27;;;;;;;3.53;1.65;;;22.80;89.90;;;;;;4950733;28;20048;-64
2023/07/06 12:57:16;;;;;;;6.50;1.52;;;23.30;90.40;;;;;;4921355;28;20035;-63